createdAt,value
2023-05-05T00:01:16.624Z,7.78
2023-05-05T00:03:43.662Z,7.40
2023-05-05T00:06:10.754Z,7.88
2023-05-05T00:08:37.680Z,7.30
2023-05-05T00:11:04.412Z,7.30
2023-05-05T00:13:31.393Z,7.60
2023-05-05T00:15:58.375Z,8.00
2023-05-05T00:18:25.340Z,7.50
2023-05-05T00:20:52.384Z,7.75
2023-05-05T00:23:21.045Z,8.07
2023-05-05T00:25:48.115Z,8.10
2023-05-05T00:28:14.927Z,8.30
2023-05-05T00:30:42.128Z,8.43
2023-05-05T00:33:11.158Z,8.45
2023-05-05T00:35:38.382Z,8.38
2023-05-05T00:38:05.308Z,7.78
2023-05-05T00:40:32.131Z,7.82
2023-05-05T00:42:59.767Z,7.50
2023-05-05T00:45:26.778Z,7.85
2023-05-05T00:47:57.066Z,8.43
2023-05-05T00:50:27.974Z,8.50
2023-05-05T00:52:57.651Z,8.50
2023-05-05T00:55:24.553Z,8.40
2023-05-05T00:57:52.147Z,8.50
2023-05-05T01:00:19.031Z,8.60
2023-05-05T01:02:46.278Z,8.75
2023-05-05T01:05:15.170Z,9.68
2023-05-05T01:08:00.835Z,8.50
2023-05-05T01:10:42.563Z,9.63
2023-05-05T01:13:40.149Z,9.55
2023-05-05T01:16:20.896Z,9.95
2023-05-05T01:18:58.840Z,9.95
2023-05-05T01:21:36.039Z,10.57
2023-05-05T01:24:28.249Z,9.82
2023-05-05T01:27:22.286Z,9.95
2023-05-05T01:30:10.521Z,10.57
2023-05-05T01:32:44.750Z,11.55
2023-05-05T01:35:31.914Z,12.82
2023-05-05T01:38:04.521Z,11.18
2023-05-05T01:40:35.112Z,11.77
2023-05-05T01:43:03.791Z,10.15
2023-05-05T01:45:35.163Z,10.93
2023-05-05T01:48:03.974Z,10.57
2023-05-05T01:50:32.057Z,10.57
2023-05-05T01:52:59.667Z,11.45
2023-05-05T01:55:27.668Z,9.75
2023-05-05T01:57:57.078Z,9.20
2023-05-05T02:00:25.434Z,9.52
2023-05-05T02:02:54.911Z,9.38
2023-05-05T02:05:24.510Z,9.48
2023-05-05T02:07:53.158Z,10.18
2023-05-05T02:10:41.029Z,9.27
2023-05-05T02:13:12.540Z,9.02
2023-05-05T02:15:40.582Z,8.98
2023-05-05T02:18:08.210Z,9.35
2023-05-05T02:20:38.069Z,9.40
2023-05-05T02:23:06.493Z,9.43
2023-05-05T02:25:43.804Z,9.65
2023-05-05T02:28:23.063Z,9.93
2023-05-05T02:30:57.700Z,9.88
2023-05-05T02:33:29.161Z,9.63
2023-05-05T02:35:58.111Z,8.27
2023-05-05T02:38:29.458Z,8.82
2023-05-05T02:41:02.207Z,8.50
2023-05-05T02:43:33.142Z,7.72
2023-05-05T02:46:00.598Z,7.85
2023-05-05T02:48:29.792Z,7.40
2023-05-05T02:50:59.464Z,8.10
2023-05-05T02:53:34.142Z,7.03
2023-05-05T02:56:37.956Z,6.93
2023-05-05T02:59:18.043Z,7.35
2023-05-05T03:02:12.523Z,6.67
2023-05-05T03:04:52.438Z,7.60
2023-05-05T03:07:30.582Z,7.95
2023-05-05T03:10:06.453Z,8.32
2023-05-05T03:12:57.487Z,7.75
2023-05-05T03:15:53.010Z,6.90
2023-05-05T03:18:25.139Z,7.93
2023-05-05T03:20:59.253Z,8.70
2023-05-05T03:23:26.454Z,7.85
2023-05-05T03:25:57.642Z,7.95
2023-05-05T03:28:42.937Z,7.88
2023-05-05T03:31:18.472Z,8.30
2023-05-05T03:33:49.759Z,8.73
2023-05-05T03:36:18.720Z,7.97
2023-05-05T03:38:45.760Z,7.80
2023-05-05T03:41:12.534Z,8.07
2023-05-05T03:43:39.491Z,8.57
2023-05-05T03:46:08.205Z,8.30
2023-05-05T03:48:35.211Z,8.70
2023-05-05T03:51:02.310Z,7.90
2023-05-05T03:53:31.431Z,8.20
2023-05-05T03:56:00.264Z,8.50
2023-05-05T03:58:27.062Z,8.75
2023-05-05T04:00:53.922Z,8.18
2023-05-05T04:03:21.314Z,8.63
2023-05-05T04:05:48.426Z,8.43
2023-05-05T04:08:15.581Z,8.23
2023-05-05T04:10:44.754Z,9.23
2023-05-05T04:13:11.982Z,7.90
2023-05-05T04:15:43.922Z,8.95
2023-05-05T04:18:10.874Z,9.27
2023-05-05T04:20:37.887Z,10.65
2023-05-05T04:23:04.664Z,10.75
2023-05-05T04:25:31.681Z,9.98
2023-05-05T04:27:58.527Z,9.70
2023-05-05T04:30:25.300Z,10.20
2023-05-05T04:32:52.314Z,9.82
2023-05-05T04:35:19.554Z,11.20
2023-05-05T04:37:46.788Z,13.00
2023-05-05T04:40:15.115Z,13.32
2023-05-05T04:42:41.839Z,14.15
2023-05-05T04:45:10.196Z,14.98
2023-05-05T04:47:38.849Z,16.38
2023-05-05T04:50:08.803Z,17.67
2023-05-05T04:52:35.966Z,17.95
2023-05-05T04:55:02.772Z,18.75
2023-05-05T04:57:31.447Z,18.42
2023-05-05T04:59:59.619Z,19.15
2023-05-05T05:02:27.139Z,19.98
2023-05-05T05:04:56.072Z,19.33
2023-05-05T05:07:22.971Z,21.70
2023-05-05T05:09:51.612Z,20.83
2023-05-05T05:12:18.525Z,21.55
2023-05-05T05:14:45.283Z,20.83
2023-05-05T05:17:12.270Z,21.25
2023-05-05T05:19:39.282Z,20.90
2023-05-05T05:22:06.335Z,21.52
2023-05-05T05:24:36.850Z,20.05
2023-05-05T05:27:09.792Z,19.80
2023-05-05T05:29:39.463Z,18.95
2023-05-05T05:32:06.588Z,18.50
2023-05-05T05:34:33.715Z,18.00
2023-05-05T05:37:01.332Z,18.90
2023-05-05T05:39:28.304Z,17.58
2023-05-05T05:41:55.434Z,17.45
2023-05-05T05:44:22.208Z,16.77
2023-05-05T05:46:48.962Z,16.50
2023-05-05T05:49:17.118Z,15.52
2023-05-05T05:51:43.777Z,14.00
2023-05-05T05:54:10.552Z,14.13
2023-05-05T05:56:37.460Z,13.27
2023-05-05T05:59:08.051Z,13.98
2023-05-05T06:01:35.709Z,12.68
2023-05-05T06:04:03.174Z,12.60
2023-05-05T06:06:31.636Z,11.55
2023-05-05T06:08:58.680Z,12.02
2023-05-05T06:11:26.587Z,12.20
2023-05-05T06:13:53.812Z,11.45
2023-05-05T06:16:23.282Z,11.57
2023-05-05T06:18:50.848Z,11.40
2023-05-05T06:21:20.684Z,12.35
2023-05-05T06:23:49.882Z,11.45
2023-05-05T06:26:19.849Z,10.85
2023-05-05T06:28:46.667Z,10.80
2023-05-05T06:31:14.478Z,11.50
2023-05-05T06:33:41.520Z,11.15
2023-05-05T06:36:08.515Z,10.98
2023-05-05T06:38:35.303Z,11.60
2023-05-05T06:41:08.789Z,11.82
2023-05-05T06:43:35.847Z,11.85
2023-05-05T06:46:11.242Z,12.48
2023-05-05T06:48:38.163Z,12.25
2023-05-05T06:51:07.754Z,12.50
2023-05-05T06:53:37.761Z,12.73
2023-05-05T06:56:04.706Z,12.30
2023-05-05T06:58:31.733Z,12.32
2023-05-05T07:00:58.676Z,12.32
2023-05-05T07:03:28.429Z,12.90
2023-05-05T07:05:55.279Z,12.43
2023-05-05T07:08:25.120Z,13.02
2023-05-05T07:10:51.898Z,13.60
2023-05-05T07:13:22.848Z,13.05
2023-05-05T07:15:51.962Z,12.82
2023-05-05T07:18:20.495Z,12.93
2023-05-05T07:20:47.627Z,12.73
2023-05-05T07:23:14.338Z,12.50
2023-05-05T07:25:41.134Z,13.13
2023-05-05T07:28:07.969Z,13.38
2023-05-05T07:30:34.667Z,12.90
2023-05-05T07:33:04.033Z,13.55
2023-05-05T07:35:30.849Z,12.95
2023-05-05T07:37:57.536Z,14.15
2023-05-05T07:40:24.368Z,14.02
2023-05-05T07:42:51.793Z,14.98
2023-05-05T07:45:18.852Z,14.43
2023-05-05T07:47:46.849Z,14.23
2023-05-05T07:50:13.681Z,13.90
2023-05-05T07:55:10.627Z,14.90
2023-05-05T07:57:37.518Z,13.98
2023-05-05T08:00:04.708Z,13.23
2023-05-05T08:02:38.953Z,13.70
2023-05-05T08:05:08.583Z,14.38
2023-05-05T08:07:36.741Z,11.90
2023-05-05T08:10:03.591Z,13.88
2023-05-05T08:12:30.975Z,12.80
2023-05-05T08:14:57.733Z,13.13
2023-05-05T08:17:27.018Z,13.32
2023-05-05T08:19:53.836Z,14.00
2023-05-05T08:22:21.724Z,13.73
2023-05-05T08:24:48.560Z,13.50
2023-05-05T08:27:15.470Z,13.52
2023-05-05T08:29:44.548Z,13.63
2023-05-05T08:32:13.859Z,10.82
2023-05-05T08:34:40.684Z,10.60
2023-05-05T08:37:09.898Z,11.85
2023-05-05T08:39:36.715Z,11.68
2023-05-05T08:42:04.161Z,12.77
2023-05-05T08:44:31.309Z,12.80
2023-05-05T08:47:00.600Z,11.73
2023-05-05T08:49:31.730Z,12.07
2023-05-05T08:52:01.791Z,11.73
2023-05-05T08:54:34.719Z,12.27
2023-05-05T08:59:33.116Z,10.05
2023-05-05T09:02:02.015Z,9.73
2023-05-05T09:04:29.127Z,9.60
2023-05-05T09:06:58.868Z,8.55
2023-05-05T09:09:26.467Z,9.88
2023-05-05T09:11:53.902Z,9.85
2023-05-05T09:14:20.774Z,10.35
2023-05-05T09:16:47.598Z,9.77
2023-05-05T09:19:14.463Z,9.05
2023-05-05T09:21:49.279Z,11.32
2023-05-05T09:24:16.259Z,9.20
2023-05-05T09:26:47.002Z,9.23
2023-05-05T09:29:23.557Z,10.02
2023-05-05T09:32:08.988Z,10.77
2023-05-05T09:34:37.294Z,9.80
2023-05-05T09:37:04.545Z,9.70
2023-05-05T09:39:31.471Z,8.57
2023-05-05T09:41:58.647Z,7.45
2023-05-05T09:44:36.913Z,6.43
2023-05-05T09:47:09.423Z,7.38
2023-05-05T09:49:39.515Z,7.47
2023-05-05T09:52:14.952Z,6.88
2023-05-05T09:54:42.883Z,5.55
2023-05-05T09:57:27.520Z,6.15
2023-05-05T10:00:02.221Z,6.38
2023-05-05T10:02:40.739Z,6.53
2023-05-05T10:05:13.743Z,6.03
2023-05-05T10:07:43.866Z,6.72
2023-05-05T10:10:15.292Z,7.18
2023-05-05T10:12:46.688Z,7.38
2023-05-05T10:15:17.557Z,6.85
2023-05-05T10:18:08.265Z,6.97
2023-05-05T10:20:38.756Z,7.30
2023-05-05T10:23:08.214Z,7.70
2023-05-05T10:25:47.328Z,6.60
2023-05-05T10:28:23.226Z,7.05
2023-05-05T10:30:54.062Z,7.25
2023-05-05T10:33:31.922Z,7.28
2023-05-05T10:36:02.588Z,7.03
2023-05-05T10:38:33.482Z,6.95
2023-05-05T10:41:02.252Z,7.38
2023-05-05T10:43:30.877Z,7.68
2023-05-05T10:45:58.726Z,6.75
2023-05-05T10:48:50.820Z,7.13
2023-05-05T10:51:38.387Z,7.53
2023-05-05T10:54:20.375Z,7.90
2023-05-05T10:56:49.867Z,6.85
2023-05-05T10:59:39.689Z,5.43
2023-05-05T11:02:26.495Z,4.82
2023-05-05T11:05:22.470Z,4.18
2023-05-05T11:07:51.221Z,4.07
2023-05-05T11:10:20.791Z,5.45
2023-05-05T11:13:11.042Z,4.93
2023-05-05T11:15:38.264Z,5.43
2023-05-05T11:18:08.007Z,6.50
2023-05-05T11:20:46.513Z,6.70
2023-05-05T11:23:16.016Z,5.72
2023-05-05T11:25:45.930Z,5.60
2023-05-05T11:28:19.774Z,5.45
2023-05-05T11:30:56.906Z,5.85
2023-05-05T11:33:36.056Z,5.63
2023-05-05T11:36:08.067Z,6.53
2023-05-05T11:38:57.022Z,6.50
2023-05-05T11:41:33.373Z,5.50
2023-05-05T11:44:21.094Z,5.80
2023-05-05T11:47:01.100Z,5.60
2023-05-05T11:49:38.649Z,6.82
2023-05-05T11:52:13.497Z,5.43
2023-05-05T11:54:51.876Z,5.60
2023-05-05T11:57:27.052Z,6.00
2023-05-05T11:59:59.205Z,6.47
2023-05-05T12:02:28.098Z,6.43
2023-05-05T12:04:56.085Z,5.85
2023-05-05T12:07:25.871Z,5.90
2023-05-05T12:09:53.889Z,6.10
2023-05-05T12:12:21.622Z,6.20
2023-05-05T12:14:53.220Z,5.78
2023-05-05T12:17:21.751Z,5.50
2023-05-05T12:19:53.502Z,5.72
2023-05-05T12:22:25.002Z,5.57
2023-05-05T12:24:56.305Z,5.57
2023-05-05T12:27:24.058Z,5.50
2023-05-05T12:29:51.735Z,6.00
2023-05-05T12:32:24.042Z,5.65
2023-05-05T12:34:55.418Z,6.18
2023-05-05T12:37:23.700Z,6.00
2023-05-05T12:39:51.447Z,4.70
2023-05-05T12:42:18.940Z,5.07
2023-05-05T12:44:46.789Z,5.25
2023-05-05T12:47:14.495Z,4.88
2023-05-05T12:49:52.665Z,5.53
2023-05-05T12:52:20.876Z,5.18
2023-05-05T12:54:57.699Z,4.70
2023-05-05T12:57:25.898Z,5.07
2023-05-05T12:59:53.581Z,5.05
2023-05-05T13:02:21.772Z,4.43
2023-05-05T13:04:50.452Z,4.88
2023-05-05T13:07:19.754Z,4.53
2023-05-05T13:09:48.245Z,4.30
2023-05-05T13:12:17.699Z,4.15
2023-05-05T13:14:45.019Z,4.60
2023-05-05T13:17:12.788Z,4.65
2023-05-05T13:19:46.547Z,4.78
2023-05-05T13:22:14.405Z,4.75
2023-05-05T13:24:51.807Z,4.10
2023-05-05T13:27:21.005Z,4.40
2023-05-05T13:29:48.088Z,3.78
2023-05-05T13:32:15.968Z,4.32
2023-05-05T13:34:44.193Z,4.13
2023-05-05T13:37:11.227Z,4.25
2023-05-05T13:39:38.223Z,4.20
2023-05-05T13:42:05.593Z,3.78
2023-05-05T13:44:32.583Z,3.88
2023-05-05T13:47:00.660Z,4.10
2023-05-05T13:49:27.970Z,3.67
2023-05-05T13:51:56.273Z,3.78
2023-05-05T13:54:23.336Z,4.03
2023-05-05T13:56:50.235Z,3.70
2023-05-05T13:59:19.594Z,3.80
2023-05-05T14:01:46.435Z,3.83
2023-05-05T14:04:13.330Z,3.47
2023-05-05T14:06:40.257Z,3.75
2023-05-05T14:09:07.992Z,3.40
2023-05-05T14:11:34.855Z,3.55
2023-05-05T14:14:04.382Z,3.78
2023-05-05T14:16:31.405Z,3.45
2023-05-05T14:18:58.265Z,3.40
2023-05-05T14:21:25.822Z,3.50
2023-05-05T14:23:52.691Z,3.90
2023-05-05T14:26:19.551Z,3.85
2023-05-05T14:28:48.994Z,3.83
2023-05-05T14:31:17.503Z,3.97
2023-05-05T14:33:44.327Z,3.30
2023-05-05T14:36:12.490Z,3.42
2023-05-05T14:38:39.979Z,3.40
2023-05-05T14:41:06.898Z,3.55
2023-05-05T14:43:33.774Z,3.50
2023-05-05T14:46:05.808Z,3.90
2023-05-05T14:48:33.907Z,3.38
2023-05-05T14:51:02.573Z,3.78
2023-05-05T14:53:31.610Z,3.28
2023-05-05T14:56:00.656Z,3.58
2023-05-05T14:58:27.603Z,3.65
2023-05-05T15:00:54.625Z,3.47
2023-05-05T15:03:21.622Z,3.40
2023-05-05T15:05:48.552Z,3.50
2023-05-05T15:08:15.534Z,3.80
2023-05-05T15:10:42.567Z,3.38
2023-05-05T15:13:09.558Z,3.60
2023-05-05T15:15:36.464Z,4.00
2023-05-05T15:18:03.516Z,3.30
2023-05-05T15:20:30.775Z,3.15
2023-05-05T15:22:58.032Z,3.40
2023-05-05T15:25:25.107Z,3.60
2023-05-05T15:27:52.013Z,2.95
2023-05-05T15:30:19.425Z,3.53
2023-05-05T15:32:46.428Z,3.55
2023-05-05T15:35:13.313Z,3.70
2023-05-05T15:37:40.799Z,3.88
2023-05-05T15:40:08.377Z,4.03
2023-05-05T15:42:38.798Z,3.45
2023-05-05T15:45:06.382Z,3.15
2023-05-05T15:47:33.920Z,3.00
2023-05-05T15:50:00.854Z,3.47
2023-05-05T15:52:29.842Z,3.30
2023-05-05T15:54:56.645Z,3.25
2023-05-05T15:57:29.926Z,2.90
2023-05-05T15:59:59.680Z,3.38
2023-05-05T16:02:26.870Z,3.95
2023-05-05T16:04:57.864Z,3.15
2023-05-05T16:07:27.890Z,3.08
2023-05-05T16:09:56.681Z,3.25
2023-05-05T16:12:23.512Z,2.88
2023-05-05T16:14:50.469Z,3.28
2023-05-05T16:17:17.227Z,3.20
2023-05-05T16:19:44.525Z,3.75
2023-05-05T16:22:18.350Z,4.00
2023-05-05T16:24:47.277Z,3.80
2023-05-05T16:27:17.021Z,3.58
2023-05-05T16:29:43.916Z,4.32
2023-05-05T16:32:11.215Z,3.40
2023-05-05T16:34:39.448Z,3.35
2023-05-05T16:37:06.658Z,3.78
2023-05-05T16:39:34.068Z,3.28
2023-05-05T16:42:01.121Z,3.83
2023-05-05T16:44:28.037Z,4.25
2023-05-05T16:46:54.847Z,3.78
2023-05-05T16:49:24.145Z,3.55
2023-05-05T16:51:53.656Z,3.55
2023-05-05T16:54:20.614Z,3.95
2023-05-05T16:56:47.369Z,3.67
2023-05-05T16:59:16.428Z,4.25
2023-05-05T17:01:43.608Z,3.97
2023-05-05T17:04:11.855Z,3.90
2023-05-05T17:06:38.781Z,4.10
2023-05-05T17:09:06.370Z,4.18
2023-05-05T17:11:33.198Z,4.00
2023-05-05T17:14:00.008Z,4.00
2023-05-05T17:16:26.969Z,4.85
2023-05-05T17:18:54.854Z,4.38
2023-05-05T17:21:21.595Z,5.20
2023-05-05T17:23:48.450Z,4.70
2023-05-05T17:26:15.369Z,5.10
2023-05-05T17:28:42.147Z,4.88
2023-05-05T17:31:09.055Z,4.95
2023-05-05T17:33:35.928Z,5.15
2023-05-05T17:36:02.790Z,5.50
2023-05-05T17:38:29.674Z,5.47
2023-05-05T17:40:56.836Z,5.57
2023-05-05T17:43:23.699Z,5.30
2023-05-05T17:45:50.605Z,5.72
2023-05-05T17:48:17.896Z,5.32
2023-05-05T17:50:45.132Z,5.70
2023-05-05T17:53:11.920Z,5.82
2023-05-05T17:55:38.821Z,4.90
2023-05-05T17:58:06.019Z,6.13
2023-05-05T18:00:32.868Z,5.78
2023-05-05T18:03:00.834Z,6.00
2023-05-05T18:05:27.773Z,5.30
2023-05-05T18:07:54.585Z,5.65
2023-05-05T18:10:21.414Z,6.03
2023-05-05T18:12:48.442Z,6.25
2023-05-05T18:15:15.344Z,6.72
2023-05-05T18:17:42.470Z,6.93
2023-05-05T18:20:10.324Z,5.68
2023-05-05T18:22:37.274Z,6.50
2023-05-05T18:25:05.942Z,7.45
2023-05-05T18:27:36.047Z,6.85
2023-05-05T18:30:04.819Z,7.70
2023-05-05T18:32:33.989Z,7.45
2023-05-05T18:35:00.984Z,7.30
2023-05-05T18:37:28.095Z,7.35
2023-05-05T18:39:54.979Z,8.00
2023-05-05T18:42:21.708Z,7.70
2023-05-05T18:44:48.498Z,7.40
2023-05-05T18:47:15.526Z,7.82
2023-05-05T18:49:42.408Z,7.70
2023-05-05T18:52:09.252Z,7.97
2023-05-05T18:54:37.856Z,6.97
2023-05-05T18:57:04.815Z,7.05
2023-05-05T18:59:31.734Z,6.95
2023-05-05T19:01:59.637Z,7.40
2023-05-05T19:04:31.464Z,8.15
2023-05-05T19:06:59.679Z,8.40
2023-05-05T19:09:26.610Z,8.20
2023-05-05T19:11:53.485Z,8.20
2023-05-05T19:14:26.498Z,7.97
2023-05-05T19:16:56.015Z,8.57
2023-05-05T19:19:23.483Z,8.30
2023-05-05T19:21:50.540Z,8.20
2023-05-05T19:24:17.362Z,7.60
2023-05-05T19:26:44.321Z,8.20
2023-05-05T19:29:12.032Z,8.20
2023-05-05T19:31:39.163Z,7.72
2023-05-05T19:34:06.461Z,7.15
2023-05-05T19:36:33.865Z,8.40
2023-05-05T19:39:04.749Z,8.25
2023-05-05T19:41:31.880Z,7.65
2023-05-05T19:43:58.885Z,8.13
2023-05-05T19:46:26.646Z,8.10
2023-05-05T19:48:54.250Z,8.82
2023-05-05T19:51:21.256Z,8.10
2023-05-05T19:53:48.256Z,8.82
2023-05-05T19:56:15.094Z,8.90
2023-05-05T19:58:59.259Z,8.27
2023-05-05T20:01:28.617Z,9.25
2023-05-05T20:03:56.576Z,10.00
2023-05-05T20:06:24.177Z,8.70
2023-05-05T20:08:51.444Z,9.30
2023-05-05T20:11:19.759Z,9.95
2023-05-05T20:13:46.994Z,8.50
2023-05-05T20:16:14.923Z,9.27
2023-05-05T20:18:44.064Z,9.52
2023-05-05T20:21:11.114Z,9.55
2023-05-05T20:23:38.332Z,9.05
2023-05-05T20:26:05.557Z,8.73
2023-05-05T20:28:33.112Z,8.63
2023-05-05T20:31:01.071Z,8.88
2023-05-05T20:33:29.280Z,8.80
2023-05-05T20:35:56.444Z,8.80
2023-05-05T20:38:23.401Z,8.73
2023-05-05T20:40:52.114Z,8.25
2023-05-05T20:43:19.310Z,9.15
2023-05-05T20:45:46.649Z,8.45
2023-05-05T20:48:13.491Z,9.15
2023-05-05T20:50:41.515Z,9.38
2023-05-05T20:53:09.603Z,12.88
2023-05-05T20:55:36.601Z,16.17
2023-05-05T20:58:04.563Z,17.50
2023-05-05T21:00:32.473Z,16.25
2023-05-05T21:02:59.424Z,17.08
2023-05-05T21:05:26.885Z,15.82
2023-05-05T21:07:54.664Z,15.50
2023-05-05T21:10:21.700Z,14.25
2023-05-05T21:12:49.301Z,14.15
2023-05-05T21:15:16.997Z,13.27
2023-05-05T21:17:43.985Z,13.35
2023-05-05T21:20:11.671Z,11.50
2023-05-05T21:22:39.009Z,13.55
2023-05-05T21:25:20.006Z,12.10
2023-05-05T21:27:48.565Z,11.88
2023-05-05T21:30:15.820Z,11.85
2023-05-05T21:32:43.096Z,11.25
2023-05-05T21:35:10.846Z,11.70
2023-05-05T21:37:39.195Z,11.48
2023-05-05T21:40:10.836Z,11.73
2023-05-05T21:42:37.987Z,10.23
2023-05-05T21:45:05.058Z,9.63
2023-05-05T21:47:32.156Z,10.95
2023-05-05T21:49:59.443Z,10.45
2023-05-05T21:52:26.251Z,10.43
2023-05-05T21:54:53.177Z,10.10
2023-05-05T21:57:20.142Z,10.70
2023-05-05T21:59:47.088Z,11.00
2023-05-05T22:02:13.983Z,12.07
2023-05-05T22:04:40.964Z,11.95
2023-05-05T22:07:07.787Z,11.73
2023-05-05T22:09:34.690Z,11.52
2023-05-05T22:12:02.593Z,10.82
2023-05-05T22:14:33.150Z,10.85
2023-05-05T22:17:00.095Z,10.13
2023-05-05T22:19:26.930Z,11.95
2023-05-05T22:21:53.796Z,11.50
2023-05-05T22:24:20.538Z,12.27
2023-05-05T22:26:47.360Z,11.35
2023-05-05T22:29:14.183Z,12.38
2023-05-05T22:31:41.064Z,11.50
2023-05-05T22:34:07.952Z,12.13
2023-05-05T22:36:34.871Z,12.68
2023-05-05T22:39:01.599Z,12.13
2023-05-05T22:41:28.428Z,12.77
2023-05-05T22:43:55.907Z,12.75
2023-05-05T22:46:22.753Z,12.63
2023-05-05T22:48:49.660Z,12.00
2023-05-05T22:51:16.720Z,11.93
2023-05-05T22:53:44.694Z,11.57
2023-05-05T22:56:12.153Z,12.10
2023-05-05T22:58:40.178Z,12.75
2023-05-05T23:01:08.037Z,12.55
2023-05-05T23:03:34.879Z,14.15
2023-05-05T23:06:01.696Z,15.27
2023-05-05T23:08:28.685Z,15.63
2023-05-05T23:10:55.926Z,15.35
2023-05-05T23:13:22.858Z,15.20
2023-05-05T23:15:49.740Z,14.60
2023-05-05T23:18:16.526Z,16.17
2023-05-05T23:20:43.277Z,15.85
2023-05-05T23:23:10.081Z,16.30
2023-05-05T23:25:36.889Z,15.65
2023-05-05T23:28:03.903Z,15.30
2023-05-05T23:30:30.812Z,15.60
2023-05-05T23:32:58.014Z,15.65
2023-05-05T23:35:26.340Z,15.75
2023-05-05T23:37:53.159Z,14.77
2023-05-05T23:40:20.392Z,14.75
2023-05-05T23:42:47.297Z,14.82
2023-05-05T23:45:14.076Z,14.45
2023-05-05T23:47:40.952Z,14.93
2023-05-05T23:50:08.564Z,14.30
2023-05-05T23:52:35.384Z,14.32
2023-05-05T23:55:02.178Z,13.73
2023-05-05T23:57:29.845Z,14.05
2023-05-05T23:59:56.745Z,12.27
